Time,TemperatureF,DewpointF,PressureIn,WindDirection,WindDirectionDegrees,WindSpeedMPH,WindSpeedGustMPH,Humidity,HourlyPrecipIn,Conditions,Clouds,dailyrainin,SolarRadiationWatts/m^2,SoftwareType,DateUTC
2014-02-17 00:04:00,38.2,31.3,30.18,NE,35,0.0,0.0,76,0.00,,,0.00,0,Wunderground v.1.15,2014-02-17 06:04:00,
2014-02-17 00:14:00,37.8,31.2,30.17,NE,35,0.0,0.0,77,0.00,,,0.00,0,Wunderground v.1.15,2014-02-17 06:14:00,
2014-02-17 00:23:00,37.7,31.1,30.17,NE,35,0.0,0.0,77,0.00,,,0.00,0,Wunderground v.1.15,2014-02-17 06:23:00,
2014-02-17 00:29:00,37.9,31.0,30.17,NE,35,0.0,0.0,76,0.00,,,0.00,0,Wunderground v.1.15,2014-02-17 06:29:00,
2014-02-17 00:39:00,37.7,31.1,30.17,NE,36,1.0,1.0,77,0.00,,,0.00,0,Wunderground v.1.15,2014-02-17 06:39:00,
2014-02-17 00:48:00,37.8,31.2,30.18,NE,36,0.0,0.0,77,0.00,,,0.00,0,Wunderground v.1.15,2014-02-17 06:48:00,
2014-02-17 00:54:00,37.8,31.2,30.18,NE,36,0.0,0.0,77,0.00,,,0.00,0,Wunderground v.1.15,2014-02-17 06:54:00,
2014-02-17 01:03:00,38.0,31.4,30.17,ENE,58,0.0,0.0,77,0.00,,,0.00,0,Wunderground v.1.15,2014-02-17 07:03:00,
2014-02-17 01:09:00,38.0,31.4,30.17,ENE,58,0.0,0.0,77,0.00,,,0.00,0,Wunderground v.1.15,2014-02-17 07:09:00,
2014-02-17 01:19:00,37.8,31.2,30.17,ENE,58,0.0,0.0,77,0.00,,,0.00,0,Wunderground v.1.15,2014-02-17 07:19:00,
2014-02-17 01:28:00,37.5,31.3,30.17,ENE,61,0.0,1.0,78,0.00,,,0.00,0,Wunderground v.1.15,2014-02-17 07:28:00,
2014-02-17 01:34:00,37.5,31.3,30.17,East,83,1.0,2.0,78,0.00,,,0.00,0,Wunderground v.1.15,2014-02-17 07:34:00,
2014-02-17 01:44:00,38.5,31.6,30.18,ENE,76,1.0,1.0,76,0.00,,,0.00,0,Wunderground v.1.15,2014-02-17 07:44:00,
2014-02-17 01:54:00,37.9,31.7,30.17,ENE,65,1.0,1.0,78,0.00,,,0.00,0,Wunderground v.1.15,2014-02-17 07:54:00,
2014-02-17 02:03:00,38.7,32.4,30.17,East,88,1.0,5.0,78,0.00,,,0.00,0,Wunderground v.1.15,2014-02-17 08:03:00,
2014-02-17 02:14:00,39.8,32.8,30.18,ENE,72,1.0,2.0,76,0.00,,,0.00,0,Wunderground v.1.15,2014-02-17 08:14:00,
2014-02-17 02:19:00,39.4,32.8,30.18,ENE,74,1.0,2.0,77,0.00,,,0.00,0,Wunderground v.1.15,2014-02-17 08:19:00,
2014-02-17 02:28:00,39.4,32.8,30.17,East,96,1.0,2.0,77,0.00,,,0.00,0,Wunderground v.1.15,2014-02-17 08:28:00,
2014-02-17 02:34:00,39.6,33.0,30.17,ENE,77,1.0,1.0,77,0.00,,,0.00,0,Wunderground v.1.15,2014-02-17 08:34:00,
2014-02-17 02:44:00,40.1,33.5,30.17,ENE,67,2.0,2.0,77,0.00,,,0.00,0,Wunderground v.1.15,2014-02-17 08:44:00,
2014-02-17 02:54:00,40.4,33.4,30.17,ESE,102,3.0,4.0,76,0.00,,,0.00,0,Wunderground v.1.15,2014-02-17 08:54:00,
2014-02-17 03:03:00,40.0,33.4,30.17,East,91,2.0,6.0,77,0.00,,,0.00,0,Wunderground v.1.15,2014-02-17 09:03:00,
2014-02-17 03:09:00,39.6,33.3,30.16,ESE,104,3.0,6.0,78,0.00,,,0.00,0,Wunderground v.1.15,2014-02-17 09:09:00,
2014-02-17 03:19:00,39.6,33.3,30.17,East,82,3.0,3.0,78,0.00,,,0.00,0,Wunderground v.1.15,2014-02-17 09:19:00,
2014-02-17 03:28:00,39.2,33.2,30.17,East,91,3.0,3.0,79,0.00,,,0.00,0,Wunderground v.1.15,2014-02-17 09:28:00,
2014-02-17 03:34:00,39.0,33.0,30.17,East,93,2.0,2.0,79,0.00,,,0.00,0,Wunderground v.1.15,2014-02-17 09:34:00,
2014-02-17 03:44:00,38.8,33.2,30.17,East,87,2.0,2.0,80,0.00,,,0.00,0,Wunderground v.1.15,2014-02-17 09:44:00,
2014-02-17 03:53:00,38.4,33.1,30.17,East,94,2.0,2.0,81,0.00,,,0.00,0,Wunderground v.1.15,2014-02-17 09:53:00,
2014-02-17 03:59:00,38.6,33.0,30.17,ESE,111,1.0,2.0,80,0.00,,,0.00,0,Wunderground v.1.15,2014-02-17 09:59:00,
2014-02-17 04:09:00,38.7,33.1,30.17,East,99,1.0,2.0,80,0.00,,,0.00,0,Wunderground v.1.15,2014-02-17 10:09:00,
2014-02-17 04:19:00,39.3,33.0,30.17,East,93,2.0,3.0,78,0.00,,,0.00,0,Wunderground v.1.15,2014-02-17 10:19:00,
2014-02-17 04:24:00,39.2,32.9,30.17,East,98,2.0,2.0,78,0.00,,,0.00,0,Wunderground v.1.15,2014-02-17 10:24:00,
2014-02-17 04:34:00,39.2,32.9,30.17,East,99,1.0,1.0,78,0.00,,,0.00,0,Wunderground v.1.15,2014-02-17 10:34:00,
2014-02-17 04:43:00,39.1,33.1,30.18,East,101,1.0,1.0,79,0.00,,,0.00,0,Wunderground v.1.15,2014-02-17 10:43:00,
2014-02-17 04:49:00,39.1,33.1,30.18,East,97,1.0,1.0,79,0.00,,,0.00,0,Wunderground v.1.15,2014-02-17 10:49:00,
2014-02-17 04:59:00,38.8,32.8,30.18,East,79,2.0,3.0,79,0.00,,,0.00,0,Wunderground v.1.15,2014-02-17 10:59:00,
2014-02-17 05:09:00,39.0,33.4,30.18,ENE,76,2.0,2.0,80,0.00,,,0.00,0,Wunderground v.1.15,2014-02-17 11:09:00,
2014-02-17 05:19:00,38.9,33.3,30.19,East,91,1.0,2.0,80,0.00,,,0.00,0,Wunderground v.1.15,2014-02-17 11:19:00,
2014-02-17 05:28:00,38.3,33.3,30.18,East,92,1.0,1.0,82,0.00,,,0.00,0,Wunderground v.1.15,2014-02-17 11:28:00,
2014-02-17 05:34:00,38.2,33.2,30.19,East,91,1.0,3.0,82,0.00,,,0.00,0,Wunderground v.1.15,2014-02-17 11:34:00,
2014-02-17 05:44:00,38.2,33.2,30.18,East,82,2.0,2.0,82,0.00,,,0.00,0,Wunderground v.1.15,2014-02-17 11:44:00,
2014-02-17 05:54:00,38.0,33.3,30.18,East,90,2.0,2.0,83,0.00,,,0.00,0,Wunderground v.1.15,2014-02-17 11:54:00,
2014-02-17 05:59:00,38.4,33.1,30.18,East,90,2.0,3.0,81,0.00,,,0.00,0,Wunderground v.1.15,2014-02-17 11:59:00,
2014-02-17 06:09:00,38.7,33.4,30.18,ENE,67,2.0,4.0,81,0.00,,,0.00,0,Wunderground v.1.15,2014-02-17 12:09:00,
2014-02-17 06:18:00,38.8,33.2,30.18,East,98,3.0,4.0,80,0.00,,,0.00,0,Wunderground v.1.15,2014-02-17 12:18:00,
2014-02-17 06:24:00,38.8,33.2,30.18,East,81,3.0,3.0,80,0.00,,,0.00,0,Wunderground v.1.15,2014-02-17 12:24:00,
2014-02-17 06:34:00,38.7,33.1,30.18,East,81,3.0,4.0,80,0.00,,,0.00,9,Wunderground v.1.15,2014-02-17 12:34:00,
2014-02-17 06:43:00,39.2,33.2,30.19,East,97,3.0,3.0,79,0.00,,,0.00,21,Wunderground v.1.15,2014-02-17 12:43:00,
2014-02-17 06:49:00,38.8,33.2,30.19,East,94,2.0,3.0,80,0.00,,,0.00,28,Wunderground v.1.15,2014-02-17 12:49:00,
2014-02-17 07:04:00,39.7,33.7,30.19,East,101,3.0,4.0,79,0.00,,,0.00,62,Wunderground v.1.15,2014-02-17 13:04:00,
2014-02-17 07:09:00,40.4,34.1,30.19,ESE,113,3.0,4.0,78,0.00,,,0.00,67,Wunderground v.1.15,2014-02-17 13:09:00,
2014-02-17 07:19:00,41.0,34.0,30.19,East,96,3.0,3.0,76,0.00,,,0.00,46,Wunderground v.1.15,2014-02-17 13:19:00,
2014-02-17 07:24:00,41.2,34.2,30.19,East,86,2.0,3.0,76,0.00,,,0.00,86,Wunderground v.1.15,2014-02-17 13:24:00,
2014-02-17 07:34:00,41.8,34.1,30.19,East,92,3.0,3.0,74,0.00,,,0.00,72,Wunderground v.1.15,2014-02-17 13:34:00,
2014-02-17 07:44:00,42.1,34.4,30.19,East,92,3.0,3.0,74,0.00,,,0.00,130,Wunderground v.1.15,2014-02-17 13:44:00,
2014-02-17 07:54:00,42.7,35.0,30.19,SE,133,4.0,8.0,74,0.00,,,0.00,151,Wunderground v.1.15,2014-02-17 13:54:00,
2014-02-17 08:03:00,43.3,34.9,30.18,ESE,116,6.0,6.0,72,0.00,,,0.00,174,Wunderground v.1.15,2014-02-17 14:03:00,
2014-02-17 08:09:00,43.8,35.0,30.18,ESE,116,6.0,6.0,71,0.00,,,0.00,192,Wunderground v.1.15,2014-02-17 14:09:00,
2014-02-17 08:18:00,45.2,36.0,30.18,SE,132,7.0,9.0,70,0.00,,,0.00,415,Wunderground v.1.15,2014-02-17 14:18:00,
2014-02-17 08:24:00,46.1,36.5,30.18,SSE,163,7.0,13.0,69,0.00,,,0.00,350,Wunderground v.1.15,2014-02-17 14:24:00,
2014-02-17 08:33:00,47.1,35.9,30.18,ESE,114,8.0,10.0,65,0.00,,,0.00,371,Wunderground v.1.15,2014-02-17 14:33:00,
2014-02-17 08:44:00,47.8,35.4,30.18,SE,127,9.0,13.0,62,0.00,,,0.00,163,Wunderground v.1.15,2014-02-17 14:44:00,
2014-02-17 08:53:00,48.0,36.0,30.18,SE,143,8.0,10.0,63,0.00,,,0.00,227,Wunderground v.1.15,2014-02-17 14:53:00,
2014-02-17 08:59:00,48.4,35.6,30.18,SSE,155,8.0,10.0,61,0.00,,,0.00,206,Wunderground v.1.15,2014-02-17 14:59:00,
2014-02-17 09:09:00,49.3,36.4,30.18,SE,142,9.0,10.0,61,0.00,,,0.00,429,Wunderground v.1.15,2014-02-17 15:09:00,
2014-02-17 09:18:00,49.7,35.9,30.18,SSE,153,7.0,8.0,59,0.00,,,0.00,206,Wunderground v.1.15,2014-02-17 15:18:00,
2014-02-17 09:24:00,49.7,36.4,30.17,SSE,159,8.0,8.0,60,0.00,,,0.00,200,Wunderground v.1.15,2014-02-17 15:24:00,
2014-02-17 09:34:00,50.1,36.3,30.17,SE,138,9.0,12.0,59,0.00,,,0.00,195,Wunderground v.1.15,2014-02-17 15:34:00,
2014-02-17 09:44:00,50.7,36.9,30.15,SE,129,10.0,10.0,59,0.00,,,0.00,338,Wunderground v.1.15,2014-02-17 15:44:00,
2014-02-17 09:54:00,52.3,38.0,30.15,SSE,153,10.0,12.0,58,0.00,,,0.00,408,Wunderground v.1.15,2014-02-17 15:54:00,
2014-02-17 10:03:00,53.0,38.6,30.15,SSE,153,11.0,11.0,58,0.00,,,0.00,279,Wunderground v.1.15,2014-02-17 16:03:00,
2014-02-17 10:09:00,53.1,38.3,30.16,SE,141,10.0,12.0,57,0.00,,,0.00,288,Wunderground v.1.15,2014-02-17 16:09:00,
2014-02-17 10:19:00,53.9,39.5,30.16,South,175,8.0,14.0,58,0.00,,,0.00,360,Wunderground v.1.15,2014-02-17 16:19:00,
2014-02-17 10:29:00,55.0,40.5,30.17,SE,145,8.0,9.0,58,0.00,,,0.00,378,Wunderground v.1.15,2014-02-17 16:29:00,
2014-02-17 10:39:00,55.5,41.4,30.17,South,175,7.0,11.0,59,0.00,,,0.00,220,Wunderground v.1.15,2014-02-17 16:39:00,
2014-02-17 10:48:00,55.3,41.6,30.16,SSW,194,5.0,8.0,60,0.00,,,0.00,327,Wunderground v.1.15,2014-02-17 16:48:00,
2014-02-17 10:54:00,56.0,42.3,30.16,South,183,5.0,10.0,60,0.00,,,0.00,241,Wunderground v.1.15,2014-02-17 16:54:00,
2014-02-17 11:03:00,55.3,42.1,30.16,SSE,148,8.0,8.0,61,0.00,,,0.00,213,Wunderground v.1.15,2014-02-17 17:03:00,
2014-02-17 11:09:00,55.1,42.3,30.16,SSE,164,7.0,8.0,62,0.00,,,0.00,216,Wunderground v.1.15,2014-02-17 17:09:00,
2014-02-17 11:18:00,56.4,43.1,30.15,SE,140,6.0,7.0,61,0.00,,,0.00,468,Wunderground v.1.15,2014-02-17 17:18:00,
2014-02-17 11:24:00,57.8,43.6,30.14,South,189,5.0,6.0,59,0.00,,,0.00,561,Wunderground v.1.15,2014-02-17 17:24:00,
2014-02-17 11:33:00,58.8,44.5,30.14,SSE,167,8.0,8.0,59,0.00,,,0.00,367,Wunderground v.1.15,2014-02-17 17:33:00,
2014-02-17 11:39:00,59.1,45.2,30.13,South,188,8.0,8.0,60,0.00,,,0.00,362,Wunderground v.1.15,2014-02-17 17:39:00,
2014-02-17 11:48:00,58.7,47.0,30.13,SSW,194,8.0,8.0,65,0.00,,,0.00,190,Wunderground v.1.15,2014-02-17 17:48:00,
2014-02-17 11:54:00,58.5,47.6,30.13,SSW,206,7.0,7.0,67,0.00,,,0.00,376,Wunderground v.1.15,2014-02-17 17:54:00,
2014-02-17 12:04:00,60.1,49.1,30.11,South,188,5.0,5.0,67,0.00,,,0.00,364,Wunderground v.1.15,2014-02-17 18:04:00,
2014-02-17 12:13:00,60.4,49.0,30.10,South,188,7.0,7.0,66,0.00,,,0.00,345,Wunderground v.1.15,2014-02-17 18:13:00,
2014-02-17 12:19:00,60.5,48.7,30.10,South,182,5.0,7.0,65,0.00,,,0.00,550,Wunderground v.1.15,2014-02-17 18:19:00,
2014-02-17 12:28:00,59.8,50.4,30.10,South,188,8.0,8.0,71,0.00,,,0.00,555,Wunderground v.1.15,2014-02-17 18:28:00,
2014-02-17 12:34:00,59.8,50.4,30.09,SSE,165,8.0,11.0,71,0.00,,,0.00,308,Wunderground v.1.15,2014-02-17 18:34:00,
2014-02-17 12:44:00,59.4,50.7,30.09,South,190,8.0,8.0,73,0.00,,,0.00,311,Wunderground v.1.15,2014-02-17 18:44:00,
2014-02-17 12:53:00,58.6,50.7,30.09,SSW,194,7.0,8.0,75,0.00,,,0.00,366,Wunderground v.1.15,2014-02-17 18:53:00,
2014-02-17 12:59:00,58.9,51.3,30.08,South,171,9.0,9.0,76,0.00,,,0.00,292,Wunderground v.1.15,2014-02-17 18:59:00,
2014-02-17 13:09:00,58.6,51.1,30.08,SSE,148,7.0,8.0,76,0.00,,,0.00,132,Wunderground v.1.15,2014-02-17 19:09:00,
2014-02-17 13:19:00,57.7,51.2,30.08,SSW,207,7.0,7.0,79,0.00,,,0.00,49,Wunderground v.1.15,2014-02-17 19:19:00,
2014-02-17 13:28:00,57.6,51.1,30.07,South,183,6.0,7.0,79,0.00,,,0.00,102,Wunderground v.1.15,2014-02-17 19:28:00,
2014-02-17 13:34:00,57.5,51.0,30.07,South,186,6.0,6.0,79,0.00,,,0.00,95,Wunderground v.1.15,2014-02-17 19:34:00,
2014-02-17 13:44:00,57.3,50.8,30.06,South,176,6.0,6.0,79,0.00,,,0.00,100,Wunderground v.1.15,2014-02-17 19:44:00,
2014-02-17 13:54:00,57.5,51.0,30.06,SSE,168,6.0,6.0,79,0.00,,,0.00,130,Wunderground v.1.15,2014-02-17 19:54:00,
2014-02-17 14:03:00,58.1,51.6,30.05,SSW,192,6.0,9.0,79,0.00,,,0.00,230,Wunderground v.1.15,2014-02-17 20:03:00,
2014-02-17 14:09:00,58.4,51.6,30.05,SE,139,7.0,9.0,78,0.00,,,0.00,234,Wunderground v.1.15,2014-02-17 20:09:00,
2014-02-17 14:19:00,59.3,52.1,30.05,SE,124,7.0,10.0,77,0.00,,,0.00,248,Wunderground v.1.15,2014-02-17 20:19:00,
2014-02-17 14:29:00,59.4,52.5,30.04,SSE,159,8.0,10.0,78,0.00,,,0.00,218,Wunderground v.1.15,2014-02-17 20:29:00,
2014-02-17 14:39:00,59.6,52.4,30.03,South,180,6.0,9.0,77,0.00,,,0.00,179,Wunderground v.1.15,2014-02-17 20:39:00,
2014-02-17 14:48:00,59.5,52.3,30.03,SW,228,8.0,8.0,77,0.00,,,0.00,137,Wunderground v.1.15,2014-02-17 20:48:00,
2014-02-17 14:54:00,59.4,52.5,30.03,SSE,161,7.0,7.0,78,0.00,,,0.00,142,Wunderground v.1.15,2014-02-17 20:54:00,
2014-02-17 15:04:00,59.5,52.6,30.03,SSE,150,6.0,6.0,78,0.00,,,0.00,148,Wunderground v.1.15,2014-02-17 21:04:00,
2014-02-17 15:13:00,59.5,52.6,30.02,SSE,154,7.0,8.0,78,0.00,,,0.00,93,Wunderground v.1.15,2014-02-17 21:13:00,
2014-02-17 15:19:00,59.5,52.6,30.03,SSE,167,7.0,11.0,78,0.00,,,0.00,63,Wunderground v.1.15,2014-02-17 21:19:00,
2014-02-17 15:29:00,59.4,52.5,30.04,SSW,202,5.0,6.0,78,0.00,,,0.00,53,Wunderground v.1.15,2014-02-17 21:29:00,
2014-02-17 15:39:00,59.2,52.7,30.05,SW,217,4.0,4.0,79,0.00,,,0.00,46,Wunderground v.1.15,2014-02-17 21:39:00,
2014-02-17 15:48:00,59.3,52.8,30.05,South,188,4.0,4.0,79,0.00,,,0.00,39,Wunderground v.1.15,2014-02-17 21:48:00,
2014-02-17 15:54:00,59.3,52.8,30.05,South,186,4.0,4.0,79,0.00,,,0.00,32,Wunderground v.1.15,2014-02-17 21:54:00,
2014-02-17 16:04:00,59.7,52.8,30.05,SSW,198,4.0,4.0,78,0.00,,,0.00,33,Wunderground v.1.15,2014-02-17 22:04:00,
2014-02-17 16:14:00,59.4,53.2,30.06,SSW,194,4.0,9.0,80,0.00,,,0.00,18,Wunderground v.1.15,2014-02-17 22:14:00,
2014-02-17 16:24:00,58.2,53.4,30.06,South,182,5.0,5.0,84,0.00,,,0.00,14,Wunderground v.1.15,2014-02-17 22:24:00,
2014-02-17 16:33:00,57.4,53.6,30.07,SSW,196,4.0,5.0,87,0.00,,,0.00,9,Wunderground v.1.15,2014-02-17 22:33:00,
2014-02-17 16:39:00,57.1,53.6,30.07,SSW,202,3.0,5.0,88,0.00,,,0.00,7,Wunderground v.1.15,2014-02-17 22:39:00,
2014-02-17 16:49:00,56.6,53.7,30.07,South,173,4.0,4.0,90,0.00,,,0.01,5,Wunderground v.1.15,2014-02-17 22:49:00,
2014-02-17 16:59:00,56.2,53.6,30.08,South,176,3.0,4.0,91,0.04,,,0.02,5,Wunderground v.1.15,2014-02-17 22:59:00,
2014-02-17 17:09:00,55.9,53.3,30.08,SSE,157,4.0,5.0,91,0.04,,,0.02,0,Wunderground v.1.15,2014-02-17 23:09:00,
2014-02-17 17:18:00,55.7,53.4,30.08,SSE,165,4.0,5.0,92,0.00,,,0.02,0,Wunderground v.1.15,2014-02-17 23:18:00,
2014-02-17 17:24:00,55.4,53.1,30.08,SSW,200,4.0,4.0,92,0.00,,,0.02,0,Wunderground v.1.15,2014-02-17 23:24:00,
2014-02-17 17:34:00,55.4,53.4,30.09,South,186,4.0,7.0,93,0.00,,,0.03,0,Wunderground v.1.15,2014-02-17 23:34:00,
2014-02-17 17:44:00,55.2,53.2,30.09,SSW,202,4.0,4.0,93,0.00,,,0.03,0,Wunderground v.1.15,2014-02-17 23:44:00,
2014-02-17 17:53:00,55.2,53.5,30.09,South,188,4.0,5.0,94,0.00,,,0.03,0,Wunderground v.1.15,2014-02-17 23:53:00,
2014-02-17 17:59:00,55.2,53.5,30.09,SSW,192,4.0,5.0,94,0.00,,,0.03,0,Wunderground v.1.15,2014-02-17 23:59:00,
2014-02-17 18:08:00,55.2,53.5,30.09,WSW,256,2.0,4.0,94,0.00,,,0.03,0,Wunderground v.1.15,2014-02-18 00:08:00,
2014-02-17 18:14:00,55.3,53.9,30.10,SW,215,2.0,3.0,95,0.00,,,0.03,0,Wunderground v.1.15,2014-02-18 00:14:00,
2014-02-17 18:24:00,55.6,54.2,30.10,SW,234,4.0,4.0,95,0.00,,,0.04,0,Wunderground v.1.15,2014-02-18 00:24:00,
2014-02-17 18:33:00,56.4,55.0,30.10,WSW,238,6.0,6.0,95,0.05,,,0.05,0,Wunderground v.1.15,2014-02-18 00:33:00,
2014-02-17 18:39:00,56.4,55.0,30.10,SW,218,5.0,6.0,95,0.05,,,0.05,0,Wunderground v.1.15,2014-02-18 00:39:00,
2014-02-17 18:48:00,56.5,55.1,30.12,NNW,332,5.0,5.0,95,0.00,,,0.05,0,Wunderground v.1.15,2014-02-18 00:48:00,
2014-02-17 18:54:00,56.4,55.0,30.12,WSW,257,3.0,4.0,95,0.00,,,0.05,0,Wunderground v.1.15,2014-02-18 00:54:00,
2014-02-17 19:03:00,56.7,55.3,30.11,SW,224,4.0,4.0,95,0.00,,,0.05,0,Wunderground v.1.15,2014-02-18 01:03:00,
2014-02-17 19:09:00,56.5,55.1,30.11,WSW,239,4.0,4.0,95,0.00,,,0.05,0,Wunderground v.1.15,2014-02-18 01:09:00,
2014-02-17 19:19:00,56.4,55.0,30.12,West,270,3.0,3.0,95,0.00,,,0.05,0,Wunderground v.1.15,2014-02-18 01:19:00,
2014-02-17 19:28:00,56.2,54.8,30.12,SW,215,3.0,6.0,95,0.00,,,0.05,0,Wunderground v.1.15,2014-02-18 01:28:00,
2014-02-17 19:34:00,56.1,55.0,30.12,WSW,258,3.0,3.0,96,0.00,,,0.05,0,Wunderground v.1.15,2014-02-18 01:34:00,
2014-02-17 19:44:00,56.0,54.9,30.12,SSW,208,3.0,3.0,96,0.00,,,0.05,0,Wunderground v.1.15,2014-02-18 01:44:00,
2014-02-17 19:54:00,55.9,54.8,30.12,West,261,2.0,2.0,96,0.00,,,0.05,0,Wunderground v.1.15,2014-02-18 01:54:00,
2014-02-17 20:04:00,55.6,54.5,30.13,SW,222,2.0,3.0,96,0.00,,,0.05,0,Wunderground v.1.15,2014-02-18 02:04:00,
2014-02-17 20:13:00,55.2,54.1,30.13,SW,232,2.0,2.0,96,0.00,,,0.05,0,Wunderground v.1.15,2014-02-18 02:13:00,
2014-02-17 20:19:00,55.0,53.9,30.13,SW,234,1.0,2.0,96,0.00,,,0.05,0,Wunderground v.1.15,2014-02-18 02:19:00,
2014-02-17 20:29:00,54.9,53.8,30.13,WSW,240,2.0,2.0,96,0.00,,,0.05,0,Wunderground v.1.15,2014-02-18 02:29:00,
2014-02-17 20:38:00,54.2,53.4,30.13,WSW,246,1.0,3.0,97,0.00,,,0.05,0,Wunderground v.1.15,2014-02-18 02:38:00,
2014-02-17 20:44:00,54.4,53.6,30.13,WSW,240,1.0,1.0,97,0.00,,,0.05,0,Wunderground v.1.15,2014-02-18 02:44:00,
2014-02-17 20:54:00,53.9,53.1,30.14,West,265,1.0,1.0,97,0.00,,,0.05,0,Wunderground v.1.15,2014-02-18 02:54:00,
2014-02-17 21:04:00,52.5,51.7,30.14,West,263,0.0,0.0,97,0.00,,,0.05,0,Wunderground v.1.15,2014-02-18 03:04:00,
2014-02-17 21:13:00,52.2,51.4,30.14,West,263,0.0,0.0,97,0.00,,,0.05,0,Wunderground v.1.15,2014-02-18 03:13:00,
2014-02-17 21:19:00,51.4,50.6,30.15,West,263,0.0,0.0,97,0.00,,,0.05,0,Wunderground v.1.15,2014-02-18 03:19:00,
2014-02-17 21:28:00,50.6,49.8,30.16,West,263,0.0,0.0,97,0.00,,,0.05,0,Wunderground v.1.15,2014-02-18 03:28:00,
2014-02-17 21:34:00,50.4,49.6,30.16,West,263,0.0,0.0,97,0.00,,,0.05,0,Wunderground v.1.15,2014-02-18 03:34:00,
2014-02-17 21:39:00,49.3,48.5,30.16,West,263,0.0,0.0,97,0.00,,,0.05,0,Wunderground v.1.15,2014-02-18 03:39:00,
2014-02-17 21:49:00,49.3,48.5,30.16,West,263,0.0,0.0,97,0.00,,,0.05,0,Wunderground v.1.15,2014-02-18 03:49:00,
2014-02-17 21:59:00,47.7,46.9,30.16,West,263,0.0,0.0,97,0.00,,,0.05,0,Wunderground v.1.15,2014-02-18 03:59:00,
2014-02-17 22:08:00,47.6,46.8,30.17,West,263,0.0,0.0,97,0.00,,,0.05,0,Wunderground v.1.15,2014-02-18 04:08:00,
2014-02-17 22:14:00,47.5,47.0,30.16,West,263,0.0,0.0,98,0.00,,,0.05,0,Wunderground v.1.15,2014-02-18 04:14:00,
2014-02-17 22:23:00,47.2,46.4,30.17,West,263,0.0,0.0,97,0.00,,,0.05,0,Wunderground v.1.15,2014-02-18 04:23:00,
2014-02-17 22:29:00,47.1,46.6,30.17,West,263,0.0,0.0,98,0.00,,,0.05,0,Wunderground v.1.15,2014-02-18 04:29:00,
2014-02-17 22:39:00,47.9,47.4,30.17,West,265,0.0,1.0,98,0.00,,,0.05,0,Wunderground v.1.15,2014-02-18 04:39:00,
2014-02-17 22:49:00,50.3,49.8,30.17,North,355,1.0,1.0,98,0.00,,,0.05,0,Wunderground v.1.15,2014-02-18 04:49:00,
2014-02-17 22:58:00,51.7,51.2,30.18,NNW,328,1.0,2.0,98,0.00,,,0.05,0,Wunderground v.1.15,2014-02-18 04:58:00,
2014-02-17 23:04:00,51.4,50.9,30.17,NNW,327,1.0,1.0,98,0.00,,,0.05,0,Wunderground v.1.15,2014-02-18 05:04:00,
2014-02-17 23:08:00,51.5,51.0,30.17,North,350,1.0,1.0,98,0.00,,,0.05,0,Wunderground v.1.15,2014-02-18 05:08:00,
2014-02-17 23:14:00,50.8,50.3,30.17,North,5,1.0,1.0,98,0.00,,,0.05,0,Wunderground v.1.15,2014-02-18 05:14:00,
2014-02-17 23:18:00,50.8,50.3,30.17,NNE,18,2.0,2.0,98,0.00,,,0.05,0,Wunderground v.1.15,2014-02-18 05:18:00,
2014-02-17 23:24:00,50.6,50.1,30.17,NNE,20,3.0,3.0,98,0.00,,,0.05,0,Wunderground v.1.15,2014-02-18 05:24:00,
2014-02-17 23:28:00,50.0,49.5,30.17,NE,53,3.0,3.0,98,0.00,,,0.05,0,Wunderground v.1.15,2014-02-18 05:28:00,
2014-02-17 23:34:00,49.7,49.2,30.17,NNE,24,2.0,6.0,98,0.00,,,0.05,0,Wunderground v.1.15,2014-02-18 05:34:00,
2014-02-17 23:39:00,49.1,48.6,30.17,NNE,28,2.0,6.0,98,0.00,,,0.05,0,Wunderground v.1.15,2014-02-18 05:39:00,
2014-02-17 23:49:00,48.0,47.5,30.17,NNE,18,1.0,2.0,98,0.00,,,0.05,0,Wunderground v.1.15,2014-02-18 05:49:00,
2014-02-17 23:59:00,46.9,46.1,30.17,NE,53,0.0,2.0,97,0.00,,,0.00,0,Wunderground v.1.15,2014-02-18 05:59:00,